sensor_id;sensor_type;location;lat;lon;timestamp;pressure;altitude;pressure_sealevel;temperature;humidity
9229;BME280;4649;42.644;23.284;2023-08-07T00:01:01;92577.34;;;18.22;77.71
9229;BME280;4649;42.644;23.284;2023-08-07T00:03:29;92395.75;;;16.98;76.45
9229;BME280;4649;42.644;23.284;2023-08-07T00:05:57;92590.69;;;18.18;77.06
9229;BME280;4649;42.644;23.284;2023-08-07T00:08:25;92506.19;;;17.77;77.96
9229;BME280;4649;42.644;23.284;2023-08-07T00:10:53;92498.72;;;17.70;76.54
9229;BME280;4649;42.644;23.284;2023-08-07T00:13:21;92575.66;;;18.26;76.75
9229;BME280;4649;42.644;23.284;2023-08-07T00:15:52;92573.47;;;18.25;77.11
9229;BME280;4649;42.644;23.284;2023-08-07T00:18:23;92393.56;;;16.82;76.53
9229;BME280;4649;42.644;23.284;2023-08-07T00:20:50;92387.34;;;16.89;77.73
9229;BME280;4649;42.644;23.284;2023-08-07T00:23:17;92467.19;;;17.47;78.19
9229;BME280;4649;42.644;23.284;2023-08-07T00:25:45;92401.72;;;16.97;77.32
9229;BME280;4649;42.644;23.284;2023-08-07T00:28:14;92501.63;;;17.72;76.69
9229;BME280;4649;42.644;23.284;2023-08-07T00:30:42;92468.81;;;17.42;77.81
9229;BME280;4649;42.644;23.284;2023-08-07T00:33:12;92446.78;;;17.33;77.26
9229;BME280;4649;42.644;23.284;2023-08-07T00:35:40;92524.25;;;17.80;76.99
9229;BME280;4649;42.644;23.284;2023-08-07T00:38:08;92467.38;;;17.41;77.31
9229;BME280;4649;42.644;23.284;2023-08-07T00:40:37;92496.53;;;17.61;77.37
9229;BME280;4649;42.644;23.284;2023-08-07T00:43:07;92404.66;;;16.84;76.98
9229;BME280;4649;42.644;23.284;2023-08-07T00:45:38;92445.84;;;17.08;77.14
9229;BME280;4649;42.644;23.284;2023-08-07T00:48:13;92420.50;;;16.78;78.97
9229;BME280;4649;42.644;23.284;2023-08-07T00:50:51;92477.94;;;17.08;80.11
9229;BME280;4649;42.644;23.284;2023-08-07T00:53:21;92545.25;;;17.40;80.51
9229;BME280;4649;42.644;23.284;2023-08-07T00:55:49;92604.19;;;17.86;81.39
9229;BME280;4649;42.644;23.284;2023-08-07T00:58:16;92602.16;;;17.79;82.08
9229;BME280;4649;42.644;23.284;2023-08-07T01:00:44;92483.00;;;16.89;81.84
9229;BME280;4649;42.644;23.284;2023-08-07T01:03:19;92606.00;;;17.76;82.81
9229;BME280;4649;42.644;23.284;2023-08-07T01:05:46;92542.84;;;17.14;83.89
9229;BME280;4649;42.644;23.284;2023-08-07T01:08:13;92589.75;;;17.33;84.94
9229;BME280;4649;42.644;23.284;2023-08-07T01:10:50;92511.03;;;16.67;85.67
9229;BME280;4649;42.644;23.284;2023-08-07T01:13:24;92577.28;;;17.10;85.72
9229;BME280;4649;42.644;23.284;2023-08-07T01:15:56;92635.16;;;17.36;86.61
9229;BME280;4649;42.644;23.284;2023-08-07T01:18:29;92439.28;;;16.09;86.53
9229;BME280;4649;42.644;23.284;2023-08-07T01:20:57;92455.66;;;16.09;86.93
9229;BME280;4649;42.644;23.284;2023-08-07T01:23:27;92514.78;;;16.42;88.06
9229;BME280;4649;42.644;23.284;2023-08-07T01:25:57;92566.06;;;16.71;87.85
9229;BME280;4649;42.644;23.284;2023-08-07T01:28:27;92560.78;;;16.73;87.62
9229;BME280;4649;42.644;23.284;2023-08-07T01:31:03;92523.56;;;16.55;87.77
9229;BME280;4649;42.644;23.284;2023-08-07T01:33:42;92483.59;;;16.30;87.63
9229;BME280;4649;42.644;23.284;2023-08-07T01:36:10;92578.13;;;16.83;87.67
9229;BME280;4649;42.644;23.284;2023-08-07T01:38:41;92627.25;;;17.18;88.47
9229;BME280;4649;42.644;23.284;2023-08-07T01:41:09;92520.31;;;16.21;90.86
9229;BME280;4649;42.644;23.284;2023-08-07T01:43:38;92637.56;;;16.90;90.78
9229;BME280;4649;42.644;23.284;2023-08-07T01:46:06;92499.84;;;16.07;90.52
9229;BME280;4649;42.644;23.284;2023-08-07T01:48:34;92438.16;;;15.62;91.05
9229;BME280;4649;42.644;23.284;2023-08-07T01:51:06;92514.00;;;16.26;90.21
9229;BME280;4649;42.644;23.284;2023-08-07T01:53:35;92444.00;;;15.66;90.97
9229;BME280;4649;42.644;23.284;2023-08-07T01:56:17;92574.75;;;16.62;90.47
9229;BME280;4649;42.644;23.284;2023-08-07T01:58:45;92494.53;;;15.94;90.50
9229;BME280;4649;42.644;23.284;2023-08-07T02:01:16;92458.91;;;15.65;90.77
9229;BME280;4649;42.644;23.284;2023-08-07T02:03:47;92516.56;;;15.96;91.93
9229;BME280;4649;42.644;23.284;2023-08-07T02:06:24;92507.19;;;15.77;91.39
9229;BME280;4649;42.644;23.284;2023-08-07T02:08:54;92462.47;;;15.52;90.91
9229;BME280;4649;42.644;23.284;2023-08-07T02:17:41;92456.97;;;15.45;89.89
9229;BME280;4649;42.644;23.284;2023-08-07T02:20:13;92523.97;;;15.88;89.85
9229;BME280;4649;42.644;23.284;2023-08-07T02:22:48;92487.50;;;15.71;88.93
9229;BME280;4649;42.644;23.284;2023-08-07T02:25:18;92470.59;;;15.45;88.78
9229;BME280;4649;42.644;23.284;2023-08-07T02:27:47;92581.47;;;16.18;88.79
9229;BME280;4649;42.644;23.284;2023-08-07T02:30:14;92662.06;;;16.75;88.74
9229;BME280;4649;42.644;23.284;2023-08-07T02:32:44;92530.31;;;15.84;88.14
9229;BME280;4649;42.644;23.284;2023-08-07T02:35:12;92563.63;;;16.17;88.60
9229;BME280;4649;42.644;23.284;2023-08-07T02:37:39;92594.50;;;16.33;88.74
9229;BME280;4649;42.644;23.284;2023-08-07T02:40:11;92466.53;;;15.66;87.77
9229;BME280;4649;42.644;23.284;2023-08-07T02:42:40;92516.19;;;15.92;87.58
9229;BME280;4649;42.644;23.284;2023-08-07T02:45:08;92638.09;;;16.88;87.09
9229;BME280;4649;42.644;23.284;2023-08-07T02:47:38;92621.97;;;16.62;86.86
9229;BME280;4649;42.644;23.284;2023-08-07T02:50:08;92534.19;;;15.95;88.53
9229;BME280;4649;42.644;23.284;2023-08-07T02:52:36;92659.72;;;16.79;87.32
9229;BME280;4649;42.644;23.284;2023-08-07T02:55:04;92602.34;;;16.36;87.46
9229;BME280;4649;42.644;23.284;2023-08-07T02:57:32;92493.22;;;15.60;88.02
9229;BME280;4649;42.644;23.284;2023-08-07T03:00:02;92513.91;;;15.76;88.03
9229;BME280;4649;42.644;23.284;2023-08-07T03:02:33;92596.28;;;16.30;88.41
9229;BME280;4649;42.644;23.284;2023-08-07T03:05:01;92652.59;;;16.41;89.56
9229;BME280;4649;42.644;23.284;2023-08-07T03:07:31;92596.38;;;16.17;90.58
9229;BME280;4649;42.644;23.284;2023-08-07T03:09:59;92494.34;;;15.37;90.28
9229;BME280;4649;42.644;23.284;2023-08-07T03:12:26;92585.78;;;16.06;90.64
9229;BME280;4649;42.644;23.284;2023-08-07T03:14:55;92629.91;;;16.25;91.67
9229;BME280;4649;42.644;23.284;2023-08-07T03:17:23;92586.75;;;15.88;92.85
9229;BME280;4649;42.644;23.284;2023-08-07T03:19:50;92616.75;;;16.16;93.59
9229;BME280;4649;42.644;23.284;2023-08-07T03:22:17;92549.69;;;15.73;93.12
9229;BME280;4649;42.644;23.284;2023-08-07T03:24:48;92549.09;;;15.67;94.16
9229;BME280;4649;42.644;23.284;2023-08-07T03:27:17;92548.34;;;15.59;95.89
9229;BME280;4649;42.644;23.284;2023-08-07T03:29:44;92580.38;;;15.86;95.81
9229;BME280;4649;42.644;23.284;2023-08-07T03:32:12;92540.41;;;15.68;95.89
9229;BME280;4649;42.644;23.284;2023-08-07T03:34:39;92578.47;;;16.01;95.24
9229;BME280;4649;42.644;23.284;2023-08-07T03:37:07;92623.69;;;16.17;96.16
9229;BME280;4649;42.644;23.284;2023-08-07T03:39:37;92594.56;;;15.92;96.39
9229;BME280;4649;42.644;23.284;2023-08-07T03:42:07;92582.66;;;15.75;96.52
9229;BME280;4649;42.644;23.284;2023-08-07T03:44:34;92717.81;;;16.72;96.97
9229;BME280;4649;42.644;23.284;2023-08-07T03:47:02;92620.06;;;16.22;96.42
9229;BME280;4649;42.644;23.284;2023-08-07T03:49:40;92729.41;;;16.93;96.98
9229;BME280;4649;42.644;23.284;2023-08-07T03:52:11;92610.16;;;16.32;95.80
9229;BME280;4649;42.644;23.284;2023-08-07T03:54:38;92616.75;;;16.44;94.71
9229;BME280;4649;42.644;23.284;2023-08-07T03:57:08;92631.75;;;16.58;93.83
9229;BME280;4649;42.644;23.284;2023-08-07T03:59:38;92689.44;;;17.17;92.39
9229;BME280;4649;42.644;23.284;2023-08-07T04:02:05;92565.91;;;16.34;90.87
9229;BME280;4649;42.644;23.284;2023-08-07T04:04:33;92651.63;;;17.01;90.45
9229;BME280;4649;42.644;23.284;2023-08-07T04:07:01;92760.22;;;17.71;89.66
9229;BME280;4649;42.644;23.284;2023-08-07T04:09:33;92566.91;;;16.51;89.44
9229;BME280;4649;42.644;23.284;2023-08-07T04:12:04;92758.22;;;17.79;88.12
9229;BME280;4649;42.644;23.284;2023-08-07T04:14:37;92665.34;;;17.16;88.49
9229;BME280;4649;42.644;23.284;2023-08-07T04:17:05;92634.19;;;17.19;86.50
9229;BME280;4649;42.644;23.284;2023-08-07T04:19:46;92654.47;;;17.31;85.22
9229;BME280;4649;42.644;23.284;2023-08-07T04:22:15;92668.75;;;17.44;85.10
9229;BME280;4649;42.644;23.284;2023-08-07T04:24:43;92714.09;;;17.97;84.13
9229;BME280;4649;42.644;23.284;2023-08-07T04:27:12;92722.13;;;18.25;81.37
9229;BME280;4649;42.644;23.284;2023-08-07T04:29:46;92610.56;;;17.73;80.29
9229;BME280;4649;42.644;23.284;2023-08-07T04:32:23;92606.00;;;18.06;79.12
9229;BME280;4649;42.644;23.284;2023-08-07T04:34:56;92597.47;;;18.63;75.42
9229;BME280;4649;42.644;23.284;2023-08-07T04:37:41;92598.13;;;18.86;73.17
9229;BME280;4649;42.644;23.284;2023-08-07T04:40:49;92753.72;;;19.86;74.28
9229;BME280;4649;42.644;23.284;2023-08-07T04:43:32;92596.91;;;18.72;72.88
9229;BME280;4649;42.644;23.284;2023-08-07T04:46:20;92717.88;;;19.53;72.59
9229;BME280;4649;42.644;23.284;2023-08-07T04:48:49;92675.38;;;19.54;72.72
9229;BME280;4649;42.644;23.284;2023-08-07T04:51:34;92594.22;;;19.36;72.03
9229;BME280;4649;42.644;23.284;2023-08-07T04:54:45;92602.09;;;20.12;68.12
9229;BME280;4649;42.644;23.284;2023-08-07T19:47:24;92875.50;;;19.96;73.92
9229;BME280;4649;42.644;23.284;2023-08-07T19:50:12;92753.97;;;19.34;73.76
9229;BME280;4649;42.644;23.284;2023-08-07T19:52:56;92752.00;;;19.20;74.11
9229;BME280;4649;42.644;23.284;2023-08-07T19:55:37;92781.13;;;19.00;76.06
9229;BME280;4649;42.644;23.284;2023-08-07T19:58:18;92802.50;;;19.02;75.34
9229;BME280;4649;42.644;23.284;2023-08-07T20:01:00;92763.00;;;18.90;74.22
9229;BME280;4649;42.644;23.284;2023-08-07T20:07:06;92750.56;;;19.11;71.53
9229;BME280;4649;42.644;23.284;2023-08-07T20:09:49;92844.81;;;19.68;72.49
9229;BME280;4649;42.644;23.284;2023-08-07T20:12:37;92759.00;;;19.06;69.69
9229;BME280;4649;42.644;23.284;2023-08-07T20:15:21;92896.00;;;19.95;71.05
9229;BME280;4649;42.644;23.284;2023-08-07T20:18:15;92752.75;;;19.13;71.12
9229;BME280;4649;42.644;23.284;2023-08-07T20:20:58;92748.38;;;19.02;69.61
9229;BME280;4649;42.644;23.284;2023-08-07T20:24:08;92781.78;;;19.31;68.40
9229;BME280;4649;42.644;23.284;2023-08-07T20:26:40;92745.81;;;19.04;69.76
9229;BME280;4649;42.644;23.284;2023-08-07T20:29:22;92839.47;;;19.77;68.44
9229;BME280;4649;42.644;23.284;2023-08-07T20:32:07;92782.31;;;19.44;68.94
9229;BME280;4649;42.644;23.284;2023-08-07T20:34:37;92722.75;;;19.15;69.77
9229;BME280;4649;42.644;23.284;2023-08-07T20:37:19;92735.75;;;19.14;70.80
9229;BME280;4649;42.644;23.284;2023-08-07T20:40:15;92740.72;;;19.08;71.73
9229;BME280;4649;42.644;23.284;2023-08-07T20:42:58;92817.38;;;19.60;73.24
9229;BME280;4649;42.644;23.284;2023-08-07T20:45:47;92713.13;;;18.84;73.69
9229;BME280;4649;42.644;23.284;2023-08-07T20:48:29;92752.75;;;19.13;74.93
9229;BME280;4649;42.644;23.284;2023-08-07T20:51:32;92752.25;;;19.07;81.44
9229;BME280;4649;42.644;23.284;2023-08-07T20:54:28;92763.00;;;19.05;83.22
9229;BME280;4649;42.644;23.284;2023-08-07T21:10:05;92832.13;;;18.81;89.60
9229;BME280;4649;42.644;23.284;2023-08-07T21:12:39;92808.38;;;18.39;91.33
9229;BME280;4649;42.644;23.284;2023-08-07T21:15:21;93001.16;;;19.58;93.34
9229;BME280;4649;42.644;23.284;2023-08-07T21:17:56;92817.84;;;18.23;92.18
9229;BME280;4649;42.644;23.284;2023-08-07T21:20:38;92897.72;;;18.57;94.27
9229;BME280;4649;42.644;23.284;2023-08-07T21:23:21;92940.94;;;18.93;93.52
9229;BME280;4649;42.644;23.284;2023-08-07T21:25:56;92845.59;;;18.20;93.73
9229;BME280;4649;42.644;23.284;2023-08-07T21:28:35;93022.00;;;19.17;93.11
9229;BME280;4649;42.644;23.284;2023-08-07T21:31:02;92966.81;;;18.55;88.22
9229;BME280;4649;42.644;23.284;2023-08-07T21:33:32;92889.34;;;17.97;88.14
9229;BME280;4649;42.644;23.284;2023-08-07T21:36:17;92927.69;;;18.05;83.67
9229;BME280;4649;42.644;23.284;2023-08-07T21:38:45;92972.38;;;18.20;79.99
9229;BME280;4649;42.644;23.284;2023-08-07T21:41:14;92824.69;;;17.16;79.92
9229;BME280;4649;42.644;23.284;2023-08-07T21:43:43;92901.25;;;17.65;77.40
9229;BME280;4649;42.644;23.284;2023-08-07T21:46:10;92915.91;;;17.74;75.59
9229;BME280;4649;42.644;23.284;2023-08-07T21:48:39;93008.78;;;18.43;74.21
9229;BME280;4649;42.644;23.284;2023-08-07T21:51:08;92846.75;;;17.46;73.72
9229;BME280;4649;42.644;23.284;2023-08-07T21:53:56;92837.03;;;17.30;72.21
9229;BME280;4649;42.644;23.284;2023-08-07T21:59:35;92872.19;;;17.54;73.45
9229;BME280;4649;42.644;23.284;2023-08-07T22:02:04;92848.97;;;17.48;72.54
9229;BME280;4649;42.644;23.284;2023-08-07T22:04:35;92995.09;;;18.35;74.00
9229;BME280;4649;42.644;23.284;2023-08-07T22:07:03;92889.16;;;17.60;74.57
9229;BME280;4649;42.644;23.284;2023-08-07T22:09:37;92816.53;;;17.24;72.69
9229;BME280;4649;42.644;23.284;2023-08-07T22:12:05;92912.81;;;17.85;76.45
9229;BME280;4649;42.644;23.284;2023-08-07T22:14:35;92875.75;;;17.84;75.05
9229;BME280;4649;42.644;23.284;2023-08-07T22:17:05;92944.44;;;18.22;78.37
9229;BME280;4649;42.644;23.284;2023-08-07T22:19:33;92831.88;;;17.62;78.14
9229;BME280;4649;42.644;23.284;2023-08-07T22:22:01;92900.81;;;17.96;79.60
9229;BME280;4649;42.644;23.284;2023-08-07T22:24:43;92825.00;;;17.33;85.86
9229;BME280;4649;42.644;23.284;2023-08-07T22:27:11;92820.50;;;17.43;85.58
9229;BME280;4649;42.644;23.284;2023-08-07T22:29:47;92820.69;;;17.45;86.60
9229;BME280;4649;42.644;23.284;2023-08-07T22:32:16;93003.06;;;18.69;86.98
9229;BME280;4649;42.644;23.284;2023-08-07T22:34:46;93009.63;;;18.73;85.99
9229;BME280;4649;42.644;23.284;2023-08-07T22:37:21;92798.75;;;17.38;84.50
9229;BME280;4649;42.644;23.284;2023-08-07T22:40:03;92841.38;;;17.61;83.95
9229;BME280;4649;42.644;23.284;2023-08-07T22:48:53;92867.19;;;17.88;85.70
9229;BME280;4649;42.644;23.284;2023-08-07T22:51:29;92842.69;;;17.75;86.16
9229;BME280;4649;42.644;23.284;2023-08-07T22:54:17;92872.16;;;17.97;86.83
9229;BME280;4649;42.644;23.284;2023-08-07T22:56:45;92950.00;;;18.51;87.95
9229;BME280;4649;42.644;23.284;2023-08-07T22:59:19;92848.28;;;17.55;89.09
9229;BME280;4649;42.644;23.284;2023-08-07T23:01:49;93010.50;;;18.61;89.37
9229;BME280;4649;42.644;23.284;2023-08-07T23:04:27;92888.53;;;17.74;90.21
9229;BME280;4649;42.644;23.284;2023-08-07T23:07:03;92926.81;;;17.67;94.77
9229;BME280;4649;42.644;23.284;2023-08-07T23:09:35;92910.44;;;17.47;96.51
9229;BME280;4649;42.644;23.284;2023-08-07T23:12:07;92833.59;;;16.82;97.56
9229;BME280;4649;42.644;23.284;2023-08-07T23:14:36;92865.53;;;17.14;97.83
9229;BME280;4649;42.644;23.284;2023-08-07T23:17:11;92843.66;;;16.87;100.00
9229;BME280;4649;42.644;23.284;2023-08-07T23:19:41;92848.25;;;16.92;100.00
9229;BME280;4649;42.644;23.284;2023-08-07T23:22:10;92922.91;;;17.27;100.00
9229;BME280;4649;42.644;23.284;2023-08-07T23:24:42;92815.75;;;16.60;100.00
9229;BME280;4649;42.644;23.284;2023-08-07T23:27:10;92818.25;;;16.79;100.00
9229;BME280;4649;42.644;23.284;2023-08-07T23:29:41;92918.41;;;17.37;100.00
9229;BME280;4649;42.644;23.284;2023-08-07T23:32:11;92812.44;;;16.54;100.00
9229;BME280;4649;42.644;23.284;2023-08-07T23:35:01;92863.03;;;16.96;100.00
9229;BME280;4649;42.644;23.284;2023-08-07T23:37:30;92859.19;;;16.92;100.00
9229;BME280;4649;42.644;23.284;2023-08-07T23:39:59;92828.69;;;16.60;100.00
9229;BME280;4649;42.644;23.284;2023-08-07T23:42:29;92811.00;;;16.33;100.00
9229;BME280;4649;42.644;23.284;2023-08-07T23:44:58;92844.00;;;16.63;100.00
9229;BME280;4649;42.644;23.284;2023-08-07T23:47:28;92870.88;;;16.72;100.00
9229;BME280;4649;42.644;23.284;2023-08-07T23:49:57;92889.47;;;16.73;100.00
9229;BME280;4649;42.644;23.284;2023-08-07T23:52:25;92967.16;;;17.46;100.00
9229;BME280;4649;42.644;23.284;2023-08-07T23:54:53;92858.59;;;16.65;100.00
9229;BME280;4649;42.644;23.284;2023-08-07T23:57:20;92914.97;;;16.96;100.00
9229;BME280;4649;42.644;23.284;2023-08-07T23:59:47;92906.25;;;16.98;100.00
